createdAt,value
2018-09-17T00:02:26.700Z,6.50
2018-09-17T00:04:54.994Z,5.90
2018-09-17T00:07:23.081Z,6.10
2018-09-17T00:09:51.181Z,6.60
2018-09-17T00:12:19.518Z,6.80
2018-09-17T00:14:47.660Z,6.77
2018-09-17T00:17:15.896Z,7.57
2018-09-17T00:19:44.913Z,7.27
2018-09-17T00:22:13.256Z,7.13
2018-09-17T00:24:41.772Z,7.10
2018-09-17T00:27:10.366Z,7.27
2018-09-17T00:29:38.611Z,5.30
2018-09-17T00:32:07.361Z,6.47
2018-09-17T00:34:35.491Z,6.20
2018-09-17T00:37:03.761Z,5.43
2018-09-17T00:39:32.233Z,5.23
2018-09-17T00:42:00.699Z,5.73
2018-09-17T00:44:28.990Z,6.37
2018-09-17T00:46:57.257Z,6.10
2018-09-17T00:49:25.532Z,6.43
2018-09-17T00:51:53.743Z,6.10
2018-09-17T00:54:21.941Z,5.97
2018-09-17T00:56:50.183Z,5.50
2018-09-17T00:59:18.758Z,6.13
2018-09-17T01:01:47.040Z,5.73
2018-09-17T01:04:15.519Z,5.33
2018-09-17T01:06:43.785Z,4.60
2018-09-17T01:09:43.658Z,5.07
2018-09-17T01:12:13.837Z,4.47
2018-09-17T01:14:42.163Z,4.83
2018-09-17T01:17:10.389Z,4.50
2018-09-17T01:19:39.185Z,4.53
2018-09-17T01:22:07.457Z,4.40
2018-09-17T01:24:36.262Z,4.47
2018-09-17T01:27:04.505Z,4.70
2018-09-17T01:29:32.655Z,4.40
2018-09-17T01:32:00.805Z,4.00
2018-09-17T01:34:29.699Z,4.30
2018-09-17T01:36:57.873Z,4.60
2018-09-17T01:39:26.199Z,4.33
2018-09-17T01:41:54.325Z,4.37
2018-09-17T01:44:22.574Z,4.43
2018-09-17T01:46:50.752Z,4.10
2018-09-17T01:49:19.001Z,4.63
2018-09-17T01:51:47.147Z,4.40
2018-09-17T01:54:15.265Z,4.20
2018-09-17T01:56:50.176Z,4.00
2018-09-17T01:59:18.477Z,4.20
2018-09-17T02:01:46.731Z,4.30
2018-09-17T02:04:14.932Z,4.70
2018-09-17T02:06:43.175Z,3.80
2018-09-17T02:09:11.344Z,4.40
2018-09-17T02:11:39.600Z,3.83
2018-09-17T02:14:07.994Z,4.10
2018-09-17T02:16:36.138Z,4.30
2018-09-17T02:19:04.376Z,4.70
2018-09-17T02:21:33.516Z,4.40
2018-09-17T02:24:01.616Z,3.80
2018-09-17T02:26:30.030Z,3.33
2018-09-17T02:28:58.406Z,3.50
2018-09-17T02:31:26.661Z,3.70
2018-09-17T02:33:54.889Z,4.00
2018-09-17T02:36:23.161Z,3.63
2018-09-17T02:38:51.443Z,3.73
2018-09-17T02:41:19.818Z,3.80
2018-09-17T02:43:48.734Z,3.60
2018-09-17T02:46:17.082Z,3.90
2018-09-17T02:48:45.343Z,3.30
2018-09-17T02:51:13.719Z,3.23
2018-09-17T02:53:42.617Z,3.90
2018-09-17T02:56:10.924Z,3.60
2018-09-17T02:58:39.190Z,3.70
2018-09-17T03:01:07.475Z,3.60
2018-09-17T03:03:35.645Z,4.07
2018-09-17T03:06:04.020Z,4.30
2018-09-17T03:08:32.157Z,4.07
2018-09-17T03:11:01.135Z,4.57
2018-09-17T03:13:29.293Z,4.40
2018-09-17T03:15:57.607Z,3.97
2018-09-17T03:18:42.831Z,3.70
2018-09-17T03:21:12.523Z,3.80
2018-09-17T03:23:40.801Z,3.97
2018-09-17T03:26:09.087Z,3.87
2018-09-17T03:28:37.253Z,4.57
2018-09-17T03:31:05.559Z,4.00
2018-09-17T03:33:33.741Z,4.30
2018-09-17T03:36:02.109Z,4.30
2018-09-17T03:38:42.891Z,4.17
2018-09-17T03:41:11.725Z,3.87
2018-09-17T03:43:41.025Z,4.40
2018-09-17T03:46:09.349Z,4.40
2018-09-17T03:48:38.518Z,4.23
2018-09-17T03:51:07.681Z,4.97
2018-09-17T03:53:36.190Z,3.97
2018-09-17T03:56:04.392Z,4.50
2018-09-17T03:58:32.589Z,3.70
2018-09-17T04:01:01.752Z,4.23
2018-09-17T04:03:30.125Z,3.60
2018-09-17T04:05:58.747Z,4.73
2018-09-17T04:08:28.258Z,4.30
2018-09-17T04:10:56.587Z,4.60
2018-09-17T04:13:24.859Z,5.47
2018-09-17T04:15:53.086Z,4.53
2018-09-17T04:18:21.217Z,4.00
2018-09-17T04:20:49.558Z,4.73
2018-09-17T04:23:24.357Z,4.70
2018-09-17T04:25:52.829Z,4.97
2018-09-17T04:28:21.112Z,4.50
2018-09-17T04:30:49.404Z,4.37
2018-09-17T04:33:22.599Z,4.33
2018-09-17T04:35:50.928Z,5.30
2018-09-17T04:38:19.307Z,5.30
2018-09-17T04:40:47.646Z,4.40
2018-09-17T04:43:15.863Z,4.10
2018-09-17T04:45:44.198Z,4.90
2018-09-17T04:48:12.331Z,5.23
2018-09-17T04:50:40.632Z,5.17
2018-09-17T04:53:08.777Z,4.63
2018-09-17T04:55:37.037Z,4.90
2018-09-17T04:58:05.259Z,4.37
2018-09-17T05:00:33.487Z,5.00
2018-09-17T05:03:01.879Z,5.87
2018-09-17T05:05:30.065Z,5.73
2018-09-17T05:07:58.245Z,5.20
2018-09-17T05:10:26.347Z,4.80
2018-09-17T05:12:54.917Z,5.73
2018-09-17T05:15:23.935Z,4.83
2018-09-17T05:17:52.081Z,5.70
2018-09-17T05:20:20.325Z,5.03
2018-09-17T05:22:48.425Z,5.70
2018-09-17T05:25:16.571Z,5.43
2018-09-17T05:27:45.194Z,5.60
2018-09-17T05:30:13.624Z,5.60
2018-09-17T05:32:41.728Z,4.87
2018-09-17T05:35:10.021Z,5.10
2018-09-17T05:37:38.305Z,5.03
2018-09-17T05:40:06.484Z,5.23
2018-09-17T05:42:34.694Z,5.43
2018-09-17T05:45:02.923Z,5.07
2018-09-17T05:47:31.183Z,5.37
2018-09-17T05:49:59.355Z,4.73
2018-09-17T05:52:27.630Z,5.60
2018-09-17T05:54:55.909Z,4.70
2018-09-17T05:57:24.223Z,5.30
2018-09-17T05:59:52.849Z,4.67
2018-09-17T06:02:21.127Z,4.90
2018-09-17T06:04:49.288Z,5.80
2018-09-17T06:07:17.600Z,5.40
2018-09-17T06:09:45.816Z,5.50
2018-09-17T06:12:14.135Z,4.77
2018-09-17T06:14:42.525Z,5.23
2018-09-17T06:17:11.112Z,5.43
2018-09-17T06:19:39.408Z,5.10
2018-09-17T06:22:10.643Z,4.70
2018-09-17T06:24:38.948Z,6.20
2018-09-17T06:27:07.173Z,5.27
2018-09-17T06:29:35.574Z,5.47
2018-09-17T06:32:03.759Z,5.30
2018-09-17T06:34:32.213Z,5.60
2018-09-17T06:37:00.601Z,5.80
2018-09-17T06:39:28.714Z,4.80
2018-09-17T06:41:56.827Z,5.67
2018-09-17T06:44:24.927Z,5.00
2018-09-17T06:46:53.038Z,5.00
2018-09-17T06:49:21.263Z,4.40
2018-09-17T06:51:49.513Z,4.87
2018-09-17T06:54:17.648Z,6.30
2018-09-17T06:56:45.842Z,5.03
2018-09-17T06:59:13.975Z,4.67
2018-09-17T07:01:42.101Z,5.13
2018-09-17T07:04:11.233Z,4.83
2018-09-17T07:06:39.359Z,4.83
2018-09-17T07:09:09.689Z,5.07
2018-09-17T07:11:38.013Z,4.53
2018-09-17T07:14:06.205Z,5.37
2018-09-17T07:16:34.529Z,4.20
2018-09-17T07:19:02.695Z,4.00
2018-09-17T07:21:31.391Z,4.70
2018-09-17T07:23:59.767Z,4.40
2018-09-17T07:26:28.299Z,3.90
2018-09-17T07:28:56.741Z,4.30
2018-09-17T07:31:24.954Z,4.00
2018-09-17T07:33:53.143Z,4.43
2018-09-17T07:36:21.445Z,4.67
2018-09-17T07:38:49.778Z,3.83
2018-09-17T07:41:18.772Z,4.00
2018-09-17T07:43:47.271Z,4.43
2018-09-17T07:46:15.488Z,4.10
2018-09-17T07:48:44.348Z,4.17
2018-09-17T07:51:12.578Z,4.37
2018-09-17T07:53:41.352Z,3.57
2018-09-17T07:56:09.728Z,4.13
2018-09-17T07:58:37.842Z,3.90
2018-09-17T08:01:12.780Z,3.50
2018-09-17T08:03:40.912Z,3.03
2018-09-17T08:06:09.031Z,3.40
2018-09-17T08:08:37.186Z,3.60
2018-09-17T08:11:05.541Z,3.57
2018-09-17T08:13:33.828Z,3.30
2018-09-17T08:16:01.988Z,2.83
2018-09-17T08:18:30.372Z,3.37
2018-09-17T08:20:58.701Z,2.70
2018-09-17T08:23:26.852Z,2.73
2018-09-17T08:25:55.168Z,3.00
2018-09-17T08:28:23.342Z,2.80
2018-09-17T08:30:51.689Z,2.70
2018-09-17T08:33:19.871Z,2.73
2018-09-17T08:35:48.184Z,3.00
2018-09-17T08:38:16.482Z,2.60
2018-09-17T08:40:44.628Z,2.67
2018-09-17T08:43:12.818Z,2.50
2018-09-17T08:45:41.940Z,2.20
2018-09-17T08:48:10.180Z,2.70
2018-09-17T08:50:38.428Z,2.40
2018-09-17T08:53:07.104Z,2.10
2018-09-17T08:55:41.006Z,2.90
2018-09-17T08:58:14.982Z,2.57
2018-09-17T09:00:48.765Z,2.40
2018-09-17T09:03:22.604Z,2.80
2018-09-17T09:05:56.455Z,2.30
2018-09-17T09:08:24.893Z,2.43
2018-09-17T09:12:00.697Z,2.57
2018-09-17T09:14:33.085Z,2.22
2018-09-17T09:17:01.321Z,2.10
2018-09-17T09:19:29.530Z,2.22
2018-09-17T09:21:57.739Z,1.87
2018-09-17T09:24:25.935Z,1.90
2018-09-17T09:26:54.103Z,2.10
2018-09-17T09:29:23.279Z,1.80
2018-09-17T09:31:51.802Z,1.70
2018-09-17T09:34:20.051Z,1.90
2018-09-17T09:36:48.279Z,1.60
2018-09-17T09:39:16.523Z,1.90
2018-09-17T09:41:44.615Z,2.17
2018-09-17T09:44:12.970Z,2.30
2018-09-17T09:46:41.235Z,2.30
2018-09-17T09:49:09.495Z,2.30
2018-09-17T09:51:37.730Z,2.17
2018-09-17T09:54:06.050Z,2.20
2018-09-17T09:56:34.315Z,2.70
2018-09-17T09:59:03.225Z,2.20
2018-09-17T10:01:36.967Z,2.10
2018-09-17T10:04:11.405Z,2.25
2018-09-17T10:06:39.840Z,2.17
2018-09-17T10:09:14.250Z,2.20
2018-09-17T10:11:48.254Z,2.20
2018-09-17T10:14:22.108Z,1.87
2018-09-17T10:16:56.210Z,2.15
2018-09-17T10:19:25.038Z,2.27
2018-09-17T10:21:53.178Z,2.08
2018-09-17T10:24:21.410Z,2.10
2018-09-17T10:26:49.572Z,2.22
2018-09-17T10:29:17.726Z,1.98
2018-09-17T10:31:46.092Z,2.62
2018-09-17T10:34:14.996Z,2.22
2018-09-17T10:36:43.200Z,2.58
2018-09-17T10:39:13.299Z,2.87
2018-09-17T10:41:41.600Z,2.62
2018-09-17T10:44:09.942Z,2.37
2018-09-17T10:46:38.262Z,2.50
2018-09-17T10:49:07.446Z,2.15
2018-09-17T10:51:35.651Z,2.27
2018-09-17T10:54:03.898Z,2.50
2018-09-17T10:56:32.132Z,2.20
2018-09-17T10:59:01.120Z,2.00
2018-09-17T11:01:29.286Z,1.75
2018-09-17T11:03:57.601Z,2.40
2018-09-17T11:06:25.761Z,2.40
2018-09-17T11:08:53.949Z,2.22
2018-09-17T11:11:22.376Z,2.12
2018-09-17T11:13:50.542Z,2.27
2018-09-17T11:16:18.711Z,2.05
2018-09-17T11:18:46.927Z,2.47
2018-09-17T11:21:15.154Z,1.80
2018-09-17T11:23:43.430Z,2.00
2018-09-17T11:26:11.653Z,2.12
2018-09-17T11:28:39.912Z,2.10
2018-09-17T11:31:08.317Z,2.58
2018-09-17T11:33:36.467Z,2.58
2018-09-17T11:36:04.668Z,2.22
2018-09-17T11:38:32.856Z,2.25
2018-09-17T11:41:01.037Z,2.40
2018-09-17T11:43:29.237Z,1.80
2018-09-17T11:45:57.454Z,2.08
2018-09-17T11:48:25.609Z,1.92
2018-09-17T11:50:53.775Z,2.00
2018-09-17T11:53:22.097Z,1.90
2018-09-17T11:55:50.226Z,1.70
2018-09-17T11:58:18.486Z,2.33
2018-09-17T12:00:52.188Z,2.20
2018-09-17T12:03:25.964Z,2.40
2018-09-17T12:05:59.552Z,2.55
2018-09-17T12:08:27.717Z,2.80
2018-09-17T12:10:55.925Z,2.70
2018-09-17T12:13:24.042Z,2.08
2018-09-17T12:15:52.244Z,2.70
2018-09-17T12:18:20.416Z,2.30
2018-09-17T12:20:48.656Z,2.50
2018-09-17T12:23:16.820Z,2.20
2018-09-17T12:25:45.132Z,2.70
2018-09-17T12:28:13.372Z,2.60
2018-09-17T12:30:41.495Z,2.45
2018-09-17T12:33:09.630Z,2.42
2018-09-17T12:35:38.056Z,2.40
2018-09-17T12:38:06.313Z,2.50
2018-09-17T12:40:34.706Z,2.47
2018-09-17T12:43:02.865Z,2.80
2018-09-17T12:45:31.210Z,2.45
2018-09-17T12:47:59.465Z,2.80
2018-09-17T12:50:27.661Z,3.10
2018-09-17T12:52:55.928Z,3.47
2018-09-17T12:55:24.159Z,2.52
2018-09-17T12:57:53.111Z,2.85
2018-09-17T13:00:21.296Z,2.75
2018-09-17T13:02:49.517Z,3.30
2018-09-17T13:05:17.646Z,2.40
2018-09-17T13:07:45.785Z,2.80
2018-09-17T13:10:13.949Z,2.12
2018-09-17T13:12:42.577Z,2.70
2018-09-17T13:15:11.072Z,2.47
2018-09-17T13:17:39.340Z,2.52
2018-09-17T13:20:08.349Z,2.92
2018-09-17T13:22:36.560Z,2.45
2018-09-17T13:25:04.800Z,2.80
2018-09-17T13:27:32.966Z,2.70
2018-09-17T13:30:01.145Z,2.30
2018-09-17T13:32:29.473Z,3.00
2018-09-17T13:34:57.648Z,2.10
2018-09-17T13:37:25.964Z,3.27
2018-09-17T13:39:54.222Z,2.62
2018-09-17T13:42:22.371Z,2.77
2018-09-17T13:44:50.626Z,3.08
2018-09-17T13:47:18.989Z,2.52
2018-09-17T13:49:47.154Z,2.72
2018-09-17T13:52:15.328Z,2.98
2018-09-17T13:54:43.525Z,2.80
2018-09-17T13:57:11.752Z,3.02
2018-09-17T13:59:39.984Z,2.65
2018-09-17T14:02:08.207Z,2.98
2018-09-17T14:04:36.443Z,2.80
2018-09-17T14:07:04.636Z,3.00
2018-09-17T14:09:32.957Z,3.08
2018-09-17T14:12:01.131Z,3.25
2018-09-17T14:14:29.432Z,3.10
2018-09-17T14:16:57.635Z,3.27
2018-09-17T14:19:25.926Z,2.60
2018-09-17T14:21:54.384Z,2.80
2018-09-17T14:24:22.560Z,3.08
2018-09-17T14:26:50.736Z,2.58
2018-09-17T14:29:18.865Z,3.37
2018-09-17T14:31:52.776Z,2.80
2018-09-17T14:34:20.990Z,3.00
2018-09-17T14:36:49.200Z,2.90
2018-09-17T14:39:17.317Z,2.65
2018-09-17T14:41:45.554Z,2.90
2018-09-17T14:44:13.798Z,3.52
2018-09-17T14:46:42.146Z,3.27
2018-09-17T14:49:10.292Z,3.40
2018-09-17T14:51:38.464Z,2.80
2018-09-17T14:54:06.634Z,2.92
2018-09-17T14:56:34.786Z,3.58
2018-09-17T14:59:03.207Z,3.35
2018-09-17T15:01:32.067Z,3.35
2018-09-17T15:04:00.306Z,3.40
2018-09-17T15:06:28.542Z,3.50
2018-09-17T15:08:56.674Z,4.00
2018-09-17T15:11:25.064Z,3.40
2018-09-17T15:13:53.353Z,3.40
2018-09-17T15:16:21.555Z,4.05
2018-09-17T15:18:49.740Z,3.95
2018-09-17T15:21:18.105Z,3.90
2018-09-17T15:23:46.247Z,3.62
2018-09-17T15:26:14.599Z,4.00
2018-09-17T15:28:42.652Z,3.17
2018-09-17T15:31:11.000Z,3.37
2018-09-17T15:33:39.123Z,4.45
2018-09-17T15:36:08.123Z,3.85
2018-09-17T15:38:36.231Z,3.72
2018-09-17T15:41:04.524Z,3.52
2018-09-17T15:43:32.558Z,3.80
2018-09-17T15:46:00.885Z,3.00
2018-09-17T15:48:29.163Z,3.65
2018-09-17T15:50:58.232Z,3.30
2018-09-17T15:53:26.376Z,3.60
2018-09-17T15:55:54.546Z,3.58
2018-09-17T15:58:22.834Z,3.58
2018-09-17T16:00:51.013Z,3.60
2018-09-17T16:03:19.245Z,3.17
2018-09-17T16:05:47.393Z,3.22
2018-09-17T16:08:15.595Z,2.85
2018-09-17T16:10:43.824Z,3.47
2018-09-17T16:13:12.022Z,4.33
2018-09-17T16:15:40.313Z,4.10
2018-09-17T16:18:09.878Z,3.98
2018-09-17T16:20:38.185Z,3.12
2018-09-17T16:23:06.390Z,3.83
2018-09-17T16:25:34.632Z,3.27
2018-09-17T16:28:02.872Z,3.13
2018-09-17T16:30:31.089Z,3.30
2018-09-17T16:32:59.256Z,3.65
2018-09-17T16:35:27.415Z,3.10
2018-09-17T16:37:55.644Z,3.87
2018-09-17T16:40:23.987Z,3.50
2018-09-17T16:42:52.151Z,3.57
2018-09-17T16:45:20.413Z,3.87
2018-09-17T16:47:48.640Z,4.10
2018-09-17T16:50:16.887Z,4.13
2018-09-17T16:52:45.132Z,4.03
2018-09-17T16:55:16.305Z,4.37
2018-09-17T16:57:44.573Z,4.27
2018-09-17T17:00:12.831Z,4.37
2018-09-17T17:02:41.089Z,4.17
2018-09-17T17:05:09.300Z,4.70
2018-09-17T17:07:44.136Z,4.80
2018-09-17T17:10:12.494Z,4.77
2018-09-17T17:12:40.583Z,5.07
2018-09-17T17:15:08.934Z,5.10
2018-09-17T17:17:37.210Z,4.67
2018-09-17T17:20:05.415Z,4.53
2018-09-17T17:22:34.184Z,4.13
2018-09-17T17:25:02.477Z,4.60
2018-09-17T17:27:30.724Z,4.80
2018-09-17T17:29:58.940Z,4.83
2018-09-17T17:32:27.208Z,5.63
2018-09-17T17:34:55.448Z,6.80
2018-09-17T17:37:23.650Z,5.97
2018-09-17T17:39:52.080Z,5.17
2018-09-17T17:42:20.066Z,5.33
2018-09-17T17:44:48.265Z,7.83
2018-09-17T17:47:16.448Z,4.73
2018-09-17T17:49:44.554Z,5.50
2018-09-17T17:52:12.869Z,6.30
2018-09-17T17:54:41.134Z,7.03
2018-09-17T17:57:09.288Z,7.70
2018-09-17T17:59:37.522Z,8.30
2018-09-17T18:02:05.760Z,7.00
2018-09-17T18:04:34.082Z,6.37
2018-09-17T18:07:02.308Z,6.70
2018-09-17T18:09:30.579Z,6.50
2018-09-17T18:11:58.862Z,5.90
2018-09-17T18:14:27.002Z,6.60
2018-09-17T18:16:55.193Z,6.77
2018-09-17T18:19:23.448Z,6.13
2018-09-17T18:21:51.767Z,6.20
2018-09-17T18:24:19.987Z,6.73
2018-09-17T18:26:48.250Z,6.33
2018-09-17T18:29:17.433Z,7.37
2018-09-17T18:31:45.581Z,9.10
2018-09-17T18:34:14.035Z,11.87
2018-09-17T18:36:42.175Z,13.23
2018-09-17T18:39:10.492Z,14.83
2018-09-17T18:41:38.653Z,13.23
2018-09-17T18:44:06.853Z,11.50
2018-09-17T18:46:35.293Z,15.57
2018-09-17T18:49:03.495Z,13.30
2018-09-17T18:51:31.716Z,16.67
2018-09-17T18:53:59.988Z,12.50
2018-09-17T18:56:28.254Z,10.40
2018-09-17T18:58:56.416Z,15.33
2018-09-17T19:01:24.679Z,14.30
2018-09-17T19:03:52.894Z,24.40
2018-09-17T19:06:21.130Z,27.63
2018-09-17T19:08:49.394Z,14.70
2018-09-17T19:11:17.768Z,11.67
2018-09-17T19:13:51.381Z,10.27
2018-09-17T19:16:25.185Z,10.27
2018-09-17T19:18:53.302Z,10.50
2018-09-17T19:21:22.700Z,8.50
2018-09-17T19:23:56.762Z,7.67
2018-09-17T19:26:24.862Z,7.23
2018-09-17T19:28:58.718Z,7.57
2018-09-17T19:31:26.889Z,7.30
2018-09-17T19:33:55.204Z,8.77
2018-09-17T19:36:23.596Z,9.53
2018-09-17T19:38:57.485Z,8.87
2018-09-17T19:41:25.663Z,8.60
2018-09-17T19:43:53.935Z,7.67
2018-09-17T19:46:22.031Z,7.07
2018-09-17T19:48:50.135Z,6.70
2018-09-17T19:51:24.113Z,7.60
2018-09-17T19:53:52.362Z,6.13
2018-09-17T19:56:20.675Z,6.83
2018-09-17T19:58:54.367Z,7.00
2018-09-17T20:01:22.530Z,5.90
2018-09-17T20:03:50.724Z,6.30
2018-09-17T20:06:24.052Z,7.73
2018-09-17T20:08:52.156Z,8.07
2018-09-17T20:11:20.339Z,8.40
2018-09-17T20:13:48.527Z,6.93
2018-09-17T20:16:16.757Z,6.80
2018-09-17T20:18:44.899Z,8.63
2018-09-17T20:21:13.280Z,10.17
2018-09-17T20:23:42.365Z,7.73
2018-09-17T20:26:10.622Z,7.90
2018-09-17T20:28:38.738Z,6.90
2018-09-17T20:31:07.047Z,6.90
2018-09-17T20:33:36.024Z,7.93
2018-09-17T20:36:04.710Z,6.60
2018-09-17T20:38:32.960Z,6.80
2018-09-17T20:41:01.130Z,5.97
2018-09-17T20:43:29.398Z,6.13
2018-09-17T20:45:57.596Z,8.03
2018-09-17T20:48:25.768Z,6.67
2018-09-17T20:50:53.906Z,6.50
2018-09-17T20:53:22.062Z,6.40
2018-09-17T20:55:50.294Z,6.70
2018-09-17T20:58:18.503Z,6.80
2018-09-17T21:00:46.688Z,6.67
2018-09-17T21:03:14.884Z,6.90
2018-09-17T21:05:43.088Z,7.10
2018-09-17T21:08:11.474Z,6.73
2018-09-17T21:10:39.676Z,7.20
2018-09-17T21:13:08.041Z,7.03
2018-09-17T21:15:36.343Z,6.90
2018-09-17T21:18:04.597Z,6.83
2018-09-17T21:20:32.747Z,8.13
2018-09-17T21:23:01.001Z,7.57
2018-09-17T21:25:29.199Z,7.10
2018-09-17T21:27:57.675Z,7.27
2018-09-17T21:30:25.817Z,7.70
2018-09-17T21:32:54.025Z,7.00
2018-09-17T21:35:22.230Z,6.60
2018-09-17T21:37:50.385Z,6.90
2018-09-17T21:40:18.525Z,6.77
2018-09-17T21:42:46.709Z,7.80
2018-09-17T21:45:14.779Z,9.57
2018-09-17T21:47:43.016Z,6.30
2018-09-17T21:50:11.250Z,6.87
2018-09-17T21:52:39.468Z,7.13
2018-09-17T21:55:07.789Z,7.40
2018-09-17T21:57:35.976Z,10.40
2018-09-17T22:00:04.511Z,6.97
2018-09-17T22:02:32.726Z,7.93
2018-09-17T22:05:01.095Z,7.47
2018-09-17T22:07:29.230Z,6.27
2018-09-17T22:09:57.346Z,7.57
2018-09-17T22:12:25.454Z,6.70
2018-09-17T22:14:54.574Z,8.10
2018-09-17T22:17:22.911Z,8.00
2018-09-17T22:19:51.077Z,7.27
2018-09-17T22:22:19.358Z,7.30
2018-09-17T22:24:47.526Z,6.87
2018-09-17T22:27:15.653Z,7.70
2018-09-17T22:29:43.732Z,7.17
2018-09-17T22:32:12.706Z,7.77
2018-09-17T22:34:40.898Z,8.03
2018-09-17T22:37:09.188Z,7.80
2018-09-17T22:39:37.272Z,7.20
2018-09-17T22:42:05.588Z,7.03
2018-09-17T22:44:33.680Z,7.20
2018-09-17T22:47:01.884Z,8.73
2018-09-17T22:49:30.120Z,7.33
2018-09-17T22:51:58.258Z,6.87
2018-09-17T22:54:26.396Z,6.90
2018-09-17T22:56:54.511Z,7.10
2018-09-17T22:59:22.656Z,7.10
2018-09-17T23:01:50.970Z,6.70
2018-09-17T23:04:19.072Z,6.57
2018-09-17T23:06:47.258Z,6.43
2018-09-17T23:09:15.511Z,6.73
2018-09-17T23:11:43.838Z,6.90
2018-09-17T23:14:12.110Z,7.93
2018-09-17T23:16:41.012Z,6.53
2018-09-17T23:19:09.139Z,7.10
2018-09-17T23:21:37.824Z,7.83
2018-09-17T23:24:06.124Z,8.80
2018-09-17T23:26:34.415Z,9.27
2018-09-17T23:29:02.537Z,8.40
2018-09-17T23:31:30.790Z,8.27
2018-09-17T23:33:58.977Z,7.93
2018-09-17T23:36:27.189Z,8.00
2018-09-17T23:38:55.504Z,9.00
2018-09-17T23:41:23.679Z,8.77
2018-09-17T23:43:51.990Z,6.73
2018-09-17T23:46:20.105Z,7.97
2018-09-17T23:48:48.355Z,8.77
2018-09-17T23:51:16.436Z,7.90
2018-09-17T23:53:44.977Z,6.43
2018-09-17T23:56:13.190Z,7.30
2018-09-17T23:58:41.515Z,6.30
